Time;durP1;ratioP1;P1;durP2;ratioP2;P2;SDS_P1;SDS_P2;PMS_P1;PMS_P2;Temp;Humidity;BMP_temperature;BMP_pressure;BME280_temperature;BME280_humidity;BME280_pressure;Samples;Min_cycle;Max_cycle;Signal;HPM_P1;HPM_P2
2022/09/14 00:01:11;;;;;;;5.70;5.20;;;;;;;15.10;91.92;99203.81;1647577;87;25540;-68
2022/09/14 00:03:38;;;;;;;5.00;4.60;;;;;;;15.10;92.13;99205.17;1631457;87;27334;-69
2022/09/14 00:06:08;;;;;;;4.60;4.20;;;;;;;15.09;92.21;99199.53;1646380;87;25770;-68
2022/09/14 00:08:36;;;;;;;5.10;4.60;;;;;;;15.09;92.39;99200.90;1639980;87;25774;-68
2022/09/14 00:11:11;;;;;;;4.62;4.22;;;;;;;15.08;92.56;99201.45;1646407;87;25694;-68
2022/09/14 00:13:41;;;;;;;5.03;4.50;;;;;;;15.08;92.53;99203.40;1631668;87;25817;-68
2022/09/14 00:16:15;;;;;;;5.22;4.67;;;;;;;15.07;92.78;99211.38;1644767;87;27492;-69
2022/09/14 00:18:42;;;;;;;5.10;4.00;;;;;;;15.07;92.88;99206.70;1620665;88;25758;-68
2022/09/14 00:21:11;;;;;;;5.65;4.33;;;;;;;15.07;92.95;99205.93;1645315;87;25604;-68
2022/09/14 00:23:41;;;;;;;7.30;4.80;;;;;;;15.06;92.96;99207.06;1646492;87;25501;-68
2022/09/14 00:26:13;;;;;;;;;;;;;;;15.04;92.94;99193.81;1634701;87;25739;-68
2022/09/14 00:28:47;;;;;;;5.00;4.50;;;;;;;15.04;93.14;99193.81;1644599;87;28350;-68
2022/09/14 00:31:14;;;;;;;6.42;4.85;;;;;;;15.00;93.02;99197.07;1616614;87;25632;-68
2022/09/14 00:33:43;;;;;;;5.40;4.90;;;;;;;14.99;93.13;99189.27;1642188;87;25793;-68
2022/09/14 00:36:23;;;;;;;5.27;4.60;;;;;;;14.98;93.03;99199.94;1642419;87;27555;-68
2022/09/14 00:38:50;;;;;;;5.85;4.92;;;;;;;14.97;93.13;99192.94;1637344;87;25682;-69
2022/09/14 00:41:24;;;;;;;5.62;5.12;;;;;;;14.94;92.99;99196.58;1642262;87;27432;-68
2022/09/14 00:44:01;;;;;;;5.58;5.00;;;;;;;14.93;92.94;99199.11;1644439;87;25862;-68
2022/09/14 00:46:31;;;;;;;6.15;5.55;;;;;;;14.91;92.73;99189.72;1644882;86;25763;-68
2022/09/14 00:49:00;;;;;;;5.80;4.90;;;;;;;14.87;92.67;99192.38;1611025;85;26103;-68
2022/09/14 00:51:29;;;;;;;5.97;5.37;;;;;;;14.84;92.42;99198.55;1633366;86;25800;-68
2022/09/14 00:53:56;;;;;;;5.97;5.42;;;;;;;14.81;92.23;99195.19;1660962;85;27923;-68
2022/09/14 00:56:22;;;;;;;6.22;5.08;;;;;;;14.78;92.28;99197.86;1660950;85;25677;-68
2022/09/14 00:58:50;;;;;;;5.85;5.35;;;;;;;14.73;92.14;99193.52;1658987;85;25577;-68
2022/09/14 01:01:17;;;;;;;6.00;4.83;;;;;;;14.70;91.93;99196.97;1654222;86;25742;-68
2022/09/14 01:03:43;;;;;;;6.62;5.12;;;;;;;14.65;91.83;99193.19;1654210;85;25720;-68
2022/09/14 01:06:34;;;;;;;6.67;5.70;;;;;;;14.60;91.55;99194.27;1657633;85;27405;-68
2022/09/14 01:09:33;;;;;;;6.35;5.37;;;;;;;14.55;91.49;99197.26;1648651;85;25728;-69
2022/09/14 01:12:28;;;;;;;7.70;5.40;;;;;;;14.48;91.40;99195.20;1668946;85;25659;-68
2022/09/14 01:15:19;;;;;;;8.80;5.65;;;;;;;14.42;91.14;99199.38;1654633;86;25650;-70
2022/09/14 01:17:59;;;;;;;7.37;5.65;;;;;;;14.36;91.45;99203.53;1668951;85;25589;-69
2022/09/14 01:20:54;;;;;;;7.60;5.62;;;;;;;14.27;91.44;99202.41;1642621;87;28599;-69
2022/09/14 01:23:48;;;;;;;8.70;6.08;;;;;;;14.22;91.20;99205.42;1660639;85;25741;-70
2022/09/14 01:26:50;;;;;;;7.10;5.87;;;;;;;14.16;91.25;99197.33;1660834;85;25674;-70
2022/09/14 01:29:43;;;;;;;9.53;6.33;;;;;;;14.12;91.66;99195.13;1664500;84;25886;-69
2022/09/14 01:32:26;;;;;;;8.48;6.20;;;;;;;14.06;92.11;99197.33;1693292;84;25402;-69
2022/09/14 01:35:13;;;;;;;7.78;6.42;;;;;;;14.02;92.45;99193.77;1702790;84;26575;-69
2022/09/14 01:38:04;;;;;;;9.50;6.70;;;;;;;13.98;92.90;99188.26;1678686;84;25715;-68
2022/09/14 01:40:38;;;;;;;7.80;6.58;;;;;;;13.96;93.05;99193.83;1673999;85;25785;-68
2022/09/14 01:43:12;;;;;;;9.48;7.20;;;;;;;13.95;93.28;99193.05;1664563;86;25989;-69
2022/09/14 01:45:43;;;;;;;10.28;7.08;;;;;;;13.95;93.61;99193.63;1673674;85;25678;-69
2022/09/14 01:48:12;;;;;;;11.97;8.85;;;;;;;13.94;93.73;99186.02;1666408;84;27401;-69
2022/09/14 01:50:46;;;;;;;11.68;8.83;;;;;;;13.93;93.83;99180.39;1680360;83;27304;-69
2022/09/14 01:53:33;;;;;;;10.75;9.18;;;;;;;13.93;93.97;99175.53;1686821;83;25759;-70
2022/09/14 01:56:20;;;;;;;11.22;9.53;;;;;;;13.93;93.91;99178.25;1663713;85;25685;-69
2022/09/14 01:58:58;;;;;;;11.70;9.25;;;;;;;13.92;93.78;99173.95;1662519;84;25767;-69
2022/09/14 02:01:38;;;;;;;9.63;8.63;;;;;;;13.90;93.70;99166.73;1660879;84;27399;-69
2022/09/14 02:04:10;;;;;;;11.22;9.08;;;;;;;13.86;93.58;99158.52;1659361;84;25768;-70
2022/09/14 02:06:41;;;;;;;10.93;8.95;;;;;;;13.82;93.38;99159.80;1661750;84;25642;-70
2022/09/14 02:09:11;;;;;;;10.05;9.00;;;;;;;13.80;93.34;99163.43;1661339;84;25705;-69
2022/09/14 02:11:38;;;;;;;10.45;9.03;;;;;;;13.76;93.37;99166.66;1687207;83;25687;-70
2022/09/14 02:14:05;;;;;;;12.70;10.25;;;;;;;13.73;93.33;99166.01;1687237;83;27308;-70
2022/09/14 02:16:33;;;;;;;11.18;10.08;;;;;;;13.68;93.42;99158.72;1687214;83;25605;-70
2022/09/14 02:19:00;;;;;;;12.33;10.32;;;;;;;13.65;93.57;99164.28;1661128;84;25592;-70
2022/09/14 02:21:30;;;;;;;13.32;10.40;;;;;;;13.61;93.69;99161.50;1644647;87;25424;-70
2022/09/14 02:23:59;;;;;;;11.15;9.93;;;;;;;13.59;93.58;99162.44;1643344;87;25439;-70
2022/09/14 02:26:27;;;;;;;13.63;11.80;;;;;;;13.56;93.46;99159.06;1643507;87;27974;-70
2022/09/14 02:28:55;;;;;;;13.53;10.85;;;;;;;13.53;93.70;99165.20;1643383;86;25497;-70
2022/09/14 02:31:38;;;;;;;14.53;10.88;;;;;;;13.50;93.70;99166.48;1644106;87;25474;-70
2022/09/14 02:34:25;;;;;;;14.83;10.90;;;;;;;13.45;93.78;99168.36;1644093;86;25719;-71
2022/09/14 02:37:12;;;;;;;11.38;10.15;;;;;;;13.41;93.75;99170.19;1644035;86;25528;-70
2022/09/14 02:40:11;;;;;;;13.85;12.33;;;;;;;13.38;93.98;99168.76;1645603;87;27455;-70
2022/09/14 02:43:10;;;;;;;16.82;12.98;;;;;;;13.36;94.44;99168.33;1644085;86;25754;-70
2022/09/14 02:45:42;;;;;;;16.37;13.78;;;;;;;13.34;94.91;99172.76;1644034;86;25592;-70
2022/09/14 02:48:31;;;;;;;22.42;15.48;;;;;;;13.35;95.21;99170.82;1609705;87;25709;-70
2022/09/14 02:51:08;;;;;;;17.07;14.33;;;;;;;13.34;95.56;99172.76;1640528;87;25518;-70
2022/09/14 02:54:04;;;;;;;20.95;16.27;;;;;;;13.34;95.73;99172.76;1643792;87;27525;-70
2022/09/14 02:56:32;;;;;;;20.65;15.75;;;;;;;13.36;96.09;99175.12;1643985;86;25530;-70
2022/09/14 02:58:58;;;;;;;19.75;15.60;;;;;;;13.38;96.25;99171.47;1645878;87;25641;-70
2022/09/14 03:01:24;;;;;;;21.20;16.05;;;;;;;13.40;96.38;99167.27;1659875;85;25404;-70
2022/09/14 03:03:51;;;;;;;23.07;16.35;;;;;;;13.43;96.56;99167.93;1647540;86;25433;-70
2022/09/14 03:06:17;;;;;;;24.00;17.50;;;;;;;13.44;96.63;99166.77;1659351;86;27402;-70
2022/09/14 03:08:43;;;;;;;25.57;18.00;;;;;;;13.50;96.67;99173.28;1667454;85;25685;-70
2022/09/14 03:11:09;;;;;;;22.30;17.42;;;;;;;13.52;96.69;99173.70;1663126;85;25476;-70
2022/09/14 03:13:36;;;;;;;20.50;16.30;;;;;;;13.55;96.84;99169.73;1659313;85;25668;-70
2022/09/14 03:16:13;;;;;;;24.95;19.17;;;;;;;13.58;96.93;99171.72;1659446;85;25472;-69
2022/09/14 03:18:41;;;;;;;24.35;17.35;;;;;;;13.61;97.05;99172.95;1658788;85;27429;-70
2022/09/14 03:21:14;;;;;;;28.70;19.77;;;;;;;13.62;97.12;99173.95;1659368;85;25460;-70
2022/09/14 03:23:45;;;;;;;30.37;21.15;;;;;;;13.66;97.13;99174.60;1664964;85;25791;-70
2022/09/14 03:26:15;;;;;;;27.30;20.08;;;;;;;13.68;97.35;99173.67;1665026;85;25567;-70
2022/09/14 03:28:42;;;;;;;28.95;20.62;;;;;;;13.70;97.35;99173.52;1659807;85;25403;-70
2022/09/14 03:31:11;;;;;;;31.45;22.65;;;;;;;13.72;97.34;99169.08;1672706;85;27342;-70
2022/09/14 03:33:38;;;;;;;33.20;21.90;;;;;;;13.71;97.37;99164.23;1661035;86;25667;-70
2022/09/14 03:36:15;;;;;;;35.58;24.50;;;;;;;13.72;97.50;99171.80;1643502;87;25799;-70
2022/09/14 03:38:51;;;;;;;31.95;23.42;;;;;;;13.73;97.45;99172.80;1615928;87;25585;-70
2022/09/14 03:41:19;;;;;;;35.95;25.17;;;;;;;13.71;97.42;99172.38;1644700;87;25426;-70
2022/09/14 03:43:46;;;;;;;30.82;23.62;;;;;;;13.71;97.34;99168.88;1674934;85;27955;-70
2022/09/14 03:46:16;;;;;;;33.15;24.10;;;;;;;13.71;97.29;99164.23;1662267;85;25465;-70
2022/09/14 03:48:43;;;;;;;32.33;23.67;;;;;;;13.72;97.00;99163.06;1640735;85;25703;-70
2022/09/14 03:51:12;;;;;;;34.43;25.62;;;;;;;13.71;96.95;99158.80;1643486;87;25877;-70
2022/09/14 03:53:40;;;;;;;34.05;24.63;;;;;;;13.72;96.88;99166.36;1645103;87;25669;-70
2022/09/14 03:56:16;;;;;;;33.60;24.75;;;;;;;13.69;96.60;99153.48;1628259;87;27331;-70
2022/09/14 03:58:45;;;;;;;33.38;24.23;;;;;;;13.68;96.41;99156.78;1627724;88;25440;-70
2022/09/14 04:01:15;;;;;;;31.02;24.67;;;;;;;13.65;96.37;99147.98;1627937;88;25430;-70
2022/09/14 04:03:43;;;;;;;31.10;24.47;;;;;;;13.62;96.05;99147.33;1627557;87;25562;-70
2022/09/14 04:06:09;;;;;;;32.95;25.08;;;;;;;13.61;95.96;99145.20;1631257;87;25739;-70
2022/09/14 04:08:38;;;;;;;34.08;24.82;;;;;;;13.60;95.89;99146.36;1627739;87;27412;-70
2022/09/14 04:11:20;;;;;;;33.98;25.82;;;;;;;13.57;96.26;99137.56;1627772;87;25635;-68
2022/09/14 04:13:47;;;;;;;35.60;27.15;;;;;;;13.57;96.48;99147.06;1629938;87;25693;-69
2022/09/14 04:16:15;;;;;;;35.98;27.02;;;;;;;13.56;96.96;99152.27;1615262;88;25923;-69
2022/09/14 04:18:42;;;;;;;37.73;26.95;;;;;;;13.55;97.11;99158.06;1616179;88;25449;-69
2022/09/14 04:21:20;;;;;;;38.88;26.85;;;;;;;13.55;97.15;99152.63;1614441;88;27429;-69
2022/09/14 04:23:47;;;;;;;36.68;27.15;;;;;;;13.55;97.24;99160.78;1615963;88;25464;-69
2022/09/14 04:29:04;;;;;;;39.15;27.67;;;;;;;13.56;97.46;99159.06;1605313;89;25520;-69
2022/09/14 04:31:32;;;;;;;45.43;30.48;;;;;;;13.56;97.46;99158.28;1602453;89;25584;-69
2022/09/14 04:33:58;;;;;;;40.60;29.55;;;;;;;13.56;97.74;99157.70;1602522;89;27586;-70
2022/09/14 04:36:29;;;;;;;44.53;29.98;;;;;;;13.56;97.58;99159.06;1602449;89;27257;-70
2022/09/14 04:38:58;;;;;;;44.55;29.15;;;;;;;13.56;97.74;99154.21;1602651;89;25547;-70
2022/09/14 04:41:25;;;;;;;42.38;29.90;;;;;;;13.57;97.84;99153.05;1602824;89;25544;-70
2022/09/14 04:43:52;;;;;;;45.80;29.85;;;;;;;13.57;97.95;99152.50;1602687;89;25777;-70
2022/09/14 04:46:22;;;;;;;43.28;29.90;;;;;;;13.58;97.98;99148.63;1602718;89;28021;-70
2022/09/14 04:48:49;;;;;;;44.58;30.95;;;;;;;13.59;97.97;99149.42;1585964;89;25535;-70
2022/09/14 04:51:20;;;;;;;44.70;31.85;;;;;;;13.60;98.08;99149.63;1589242;90;25747;-70
2022/09/14 04:53:49;;;;;;;44.75;30.97;;;;;;;13.61;98.32;99148.49;1629023;87;25702;-70
2022/09/14 04:56:20;;;;;;;46.88;31.85;;;;;;;13.61;98.36;99153.34;1648348;87;25643;-70
2022/09/14 04:58:49;;;;;;;50.75;33.10;;;;;;;13.66;98.68;99155.58;1648262;87;27392;-70
2022/09/14 05:01:20;;;;;;;47.20;32.08;;;;;;;13.69;98.98;99156.20;1661541;86;25477;-71
2022/09/14 05:03:47;;;;;;;44.88;31.45;;;;;;;13.73;99.14;99157.86;1691150;84;25568;-70
2022/09/14 05:06:17;;;;;;;48.45;32.30;;;;;;;13.78;99.70;99150.78;1680909;84;26096;-71
2022/09/14 05:08:45;;;;;;;53.65;32.45;;;;;;;13.85;99.93;99148.00;1680320;84;25686;-71
2022/09/14 05:11:17;;;;;;;50.87;32.67;;;;;;;13.91;100.00;99145.19;1685798;83;27295;-71
2022/09/14 05:13:44;;;;;;;47.23;31.75;;;;;;;13.95;99.96;99150.13;1691053;83;25552;-71
2022/09/14 05:16:20;;;;;;;47.60;30.85;;;;;;;13.99;99.96;99146.90;1691015;83;25581;-71
2022/09/14 05:18:48;;;;;;;49.20;32.30;;;;;;;14.04;99.97;99151.27;1685110;83;25440;-71
2022/09/14 05:21:18;;;;;;;46.40;31.00;;;;;;;14.09;100.00;99160.48;1635290;86;25745;-71
2022/09/14 05:23:46;;;;;;;47.62;31.65;;;;;;;14.14;100.00;99156.12;1685863;84;27256;-71
2022/09/14 05:26:13;;;;;;;49.15;31.68;;;;;;;14.17;100.00;99157.54;1687973;84;25608;-72
2022/09/14 05:28:39;;;;;;;44.98;31.05;;;;;;;14.20;100.00;99161.48;1717089;83;25948;-70
2022/09/14 05:31:09;;;;;;;44.20;31.90;;;;;;;14.24;100.00;99150.66;1724674;82;25683;-70
2022/09/14 05:33:36;;;;;;;46.75;30.35;;;;;;;14.25;100.00;99145.42;1719064;83;25575;-69
2022/09/14 05:36:06;;;;;;;44.73;30.55;;;;;;;14.27;100.00;99143.93;1721868;82;27332;-69
2022/09/14 05:38:37;;;;;;;42.23;29.75;;;;;;;14.31;100.00;99143.98;1720927;82;25398;-69
2022/09/14 05:41:05;;;;;;;44.18;29.48;;;;;;;14.33;100.00;99140.33;1724754;82;25573;-70
2022/09/14 05:43:32;;;;;;;40.93;29.70;;;;;;;14.38;100.00;99146.24;1721705;83;25672;-70
2022/09/14 05:46:05;;;;;;;42.15;28.35;;;;;;;14.41;100.00;99143.39;1723171;83;25297;-70
2022/09/14 05:48:33;;;;;;;37.13;27.05;;;;;;;14.43;99.98;99141.67;1717379;80;27331;-68
2022/09/14 05:51:03;;;;;;;37.05;26.93;;;;;;;14.46;99.87;99145.03;1724052;83;25464;-70
2022/09/14 05:53:30;;;;;;;37.33;26.60;;;;;;;14.54;100.00;99149.41;1724141;83;25636;-70
2022/09/14 05:56:12;;;;;;;39.75;27.85;;;;;;;14.59;100.00;99149.73;1722043;83;25455;-70
2022/09/14 05:58:40;;;;;;;38.17;28.20;;;;;;;14.68;100.00;99155.72;1680334;84;25653;-70
2022/09/14 06:01:16;;;;;;;40.98;28.42;;;;;;;14.73;100.00;99149.98;1674891;84;27383;-70
2022/09/14 06:03:44;;;;;;;39.27;27.37;;;;;;;14.83;100.00;99149.91;1674804;84;25707;-69
2022/09/14 06:06:15;;;;;;;38.17;28.42;;;;;;;14.92;100.00;99144.43;1674871;84;25445;-69
2022/09/14 06:08:42;;;;;;;36.73;27.27;;;;;;;15.00;100.00;99144.53;1674917;84;25631;-70
2022/09/14 06:11:12;;;;;;;36.55;26.50;;;;;;;15.05;100.00;99141.49;1674832;84;25756;-70
2022/09/14 06:13:38;;;;;;;35.80;25.52;;;;;;;15.04;99.94;99142.66;1674892;85;27367;-69
2022/09/14 06:16:18;;;;;;;42.00;26.42;;;;;;;15.06;100.00;99141.13;1674940;84;25439;-70
2022/09/14 06:18:47;;;;;;;39.70;28.02;;;;;;;15.11;100.00;99142.76;1658575;84;25623;-70
2022/09/14 06:21:18;;;;;;;42.40;27.30;;;;;;;15.15;100.00;99138.14;1675139;84;25433;-68
2022/09/14 06:23:46;;;;;;;33.20;25.17;;;;;;;15.20;100.00;99145.98;1657247;85;25787;-68
2022/09/14 06:26:13;;;;;;;34.10;26.60;;;;;;;15.29;100.00;99146.52;1674952;85;27325;-68
2022/09/14 06:28:39;;;;;;;40.03;27.73;;;;;;;15.42;100.00;99144.93;1674780;85;25512;-67
2022/09/14 06:31:08;;;;;;;36.95;25.60;;;;;;;15.53;100.00;99147.78;1675009;84;25481;-68
2022/09/14 06:33:35;;;;;;;40.23;27.27;;;;;;;15.61;100.00;99151.61;1724676;82;25630;-69
2022/09/14 06:36:11;;;;;;;36.93;25.65;;;;;;;15.67;100.00;99156.92;1724832;82;25760;-69
2022/09/14 06:38:41;;;;;;;35.83;24.92;;;;;;;15.75;100.00;99156.48;1721162;82;27906;-69
2022/09/14 06:41:12;;;;;;;35.80;25.62;;;;;;;15.76;100.00;99151.80;1721074;83;25664;-69
2022/09/14 06:43:41;;;;;;;33.25;23.98;;;;;;;15.75;99.08;99163.83;1724696;83;25728;-69
2022/09/14 06:46:18;;;;;;;33.38;25.02;;;;;;;15.67;98.21;99161.02;1724889;83;25699;-70
2022/09/14 06:48:49;;;;;;;35.15;24.02;;;;;;;15.69;98.94;99164.16;1722235;81;25487;-70
2022/09/14 06:51:27;;;;;;;37.25;24.50;;;;;;;15.73;99.35;99162.83;1715326;83;27299;-69
2022/09/14 06:53:58;;;;;;;35.75;25.80;;;;;;;15.80;99.89;99154.79;1722882;83;25564;-69
2022/09/14 06:56:25;;;;;;;36.68;25.85;;;;;;;15.85;99.03;99157.74;1724744;83;25421;-69
2022/09/14 06:58:52;;;;;;;36.23;25.27;;;;;;;15.95;99.52;99160.39;1721410;83;25535;-69
2022/09/14 07:01:20;;;;;;;42.62;27.10;;;;;;;15.98;99.64;99154.98;1702894;83;25649;-69
2022/09/14 07:03:47;;;;;;;37.98;26.20;;;;;;;16.00;99.29;99169.02;1724706;83;27377;-69
2022/09/14 07:06:19;;;;;;;41.77;27.07;;;;;;;16.00;98.36;99170.37;1723798;82;25399;-69
2022/09/14 07:08:47;;;;;;;42.05;28.73;;;;;;;15.98;98.14;99178.16;1721931;83;25609;-69
2022/09/14 07:11:16;;;;;;;41.73;28.60;;;;;;;15.97;98.11;99186.15;1723238;83;25972;-68
2022/09/14 07:13:44;;;;;;;40.08;26.73;;;;;;;15.98;98.06;99182.83;1723211;83;25465;-67
2022/09/14 07:16:11;;;;;;;37.78;27.17;;;;;;;15.94;97.10;99180.06;1702920;83;27320;-68
2022/09/14 07:18:38;;;;;;;39.27;27.35;;;;;;;15.91;97.18;99188.21;1722268;83;25659;-68
2022/09/14 07:21:09;;;;;;;40.48;28.55;;;;;;;15.89;97.08;99189.94;1701183;83;26226;-68
2022/09/14 07:23:39;;;;;;;38.75;28.30;;;;;;;15.86;96.95;99187.36;1674562;85;25566;-69
2022/09/14 07:26:17;;;;;;;41.35;28.42;;;;;;;15.85;96.80;99196.72;1690684;84;25720;-69
2022/09/14 07:28:47;;;;;;;36.17;26.00;;;;;;;15.86;97.31;99195.55;1675674;84;28033;-68
2022/09/14 07:31:20;;;;;;;39.08;26.50;;;;;;;15.87;97.03;99199.86;1697503;84;25668;-68
2022/09/14 07:33:47;;;;;;;33.38;24.87;;;;;;;15.91;97.19;99201.84;1697708;84;25823;-69
2022/09/14 07:36:14;;;;;;;28.20;22.73;;;;;;;15.94;96.57;99207.92;1697513;84;27513;-69
2022/09/14 07:38:41;;;;;;;34.80;25.27;;;;;;;15.87;95.36;99205.30;1678285;84;25685;-69
2022/09/14 07:41:07;;;;;;;33.33;26.23;;;;;;;15.85;95.63;99201.37;1697452;83;27237;-69
2022/09/14 07:43:34;;;;;;;34.35;25.25;;;;;;;15.96;96.99;99197.42;1689832;84;26026;-69
2022/09/14 07:46:04;;;;;;;36.65;25.85;;;;;;;16.09;97.61;99197.39;1677897;84;25783;-70
2022/09/14 07:48:33;;;;;;;31.10;24.47;;;;;;;16.12;96.71;99197.98;1676066;82;25666;-69
2022/09/14 07:51:06;;;;;;;36.20;24.93;;;;;;;16.15;96.52;99195.10;1689850;83;25648;-69
2022/09/14 07:53:37;;;;;;;32.10;24.05;;;;;;;16.20;96.13;99189.31;1681663;84;27246;-69
2022/09/14 07:56:06;;;;;;;30.20;20.88;;;;;;;16.52;97.47;99187.49;1697632;83;25728;-68
2022/09/14 07:58:33;;;;;;;25.93;20.57;;;;;;;17.14;98.34;99189.56;1697833;83;25633;-69
2022/09/14 08:01:01;;;;;;;31.68;21.05;;;;;;;17.84;100.00;99189.55;1697049;83;25747;-69
2022/09/14 08:03:28;;;;;;;25.65;18.40;;;;;;;18.39;96.60;99183.08;1689423;84;25751;-69
2022/09/14 08:06:01;;;;;;;24.95;18.73;;;;;;;18.63;93.06;99180.20;1689402;83;27911;-69
2022/09/14 08:08:31;;;;;;;23.00;17.65;;;;;;;19.00;92.88;99175.73;1689155;83;25712;-69
2022/09/14 08:11:14;;;;;;;24.72;16.75;;;;;;;19.19;89.60;99182.74;1687706;84;25664;-68
2022/09/14 08:13:57;;;;;;;22.73;14.90;;;;;;;19.45;90.72;99186.21;1696152;84;25532;-68
2022/09/14 08:16:27;;;;;;;20.10;15.23;;;;;;;19.69;87.23;99190.64;1684744;84;25742;-69
2022/09/14 08:18:56;;;;;;;;;;;;;;;19.87;86.62;99186.47;1636706;86;27380;-69
2022/09/14 08:21:23;;;;;;;19.85;13.38;;;;;;;19.84;82.22;99188.67;1683298;84;25805;-68
2022/09/14 08:23:50;;;;;;;17.67;13.55;;;;;;;19.88;82.56;99194.31;1687102;83;25737;-69
2022/09/14 08:26:22;;;;;;;16.57;12.85;;;;;;;20.28;84.57;99188.05;1686632;85;25603;-65
2022/09/14 08:28:51;;;;;;;16.55;12.43;;;;;;;20.53;83.15;99184.34;1674234;84;25673;-65
2022/09/14 08:31:23;;;;;;;16.07;11.50;;;;;;;20.65;81.76;99188.03;1705401;84;28228;-65
2022/09/14 08:34:01;;;;;;;17.45;10.72;;;;;;;20.75;81.29;99186.36;1705590;84;25667;-65
2022/09/14 08:36:33;;;;;;;13.25;10.08;;;;;;;20.98;81.67;99188.54;1705660;84;25717;-65
2022/09/14 08:41:57;;;;;;;20.17;10.00;;;;;;;21.47;77.54;99191.81;1675474;85;25698;-65
2022/09/14 08:44:42;;;;;;;13.43;9.10;;;;;;;21.79;76.79;99191.45;1675712;84;27347;-69
2022/09/14 08:47:35;;;;;;;11.45;8.18;;;;;;;22.23;75.97;99186.17;1675280;85;25780;-69
2022/09/14 08:50:17;;;;;;;17.27;7.70;;;;;;;22.73;74.90;99183.47;1659757;83;25739;-69
2022/09/14 08:52:51;;;;;;;8.80;6.33;;;;;;;23.30;74.63;99174.05;1686198;84;25534;-68
2022/09/14 08:55:59;;;;;;;11.35;6.95;;;;;;;23.94;72.33;99176.75;1687594;83;25662;-68
2022/09/14 08:58:34;;;;;;;9.80;6.45;;;;;;;24.31;68.71;99176.91;1632824;86;27415;-68
2022/09/14 09:01:27;;;;;;;10.90;6.87;;;;;;;24.47;68.28;99181.70;1626882;86;25791;-68
2022/09/14 09:04:26;;;;;;;7.25;6.22;;;;;;;24.56;67.11;99175.59;1622150;88;25825;-68
2022/09/14 09:07:16;;;;;;;9.10;5.87;;;;;;;24.77;66.59;99176.47;1677758;83;26006;-68
2022/09/14 09:09:49;;;;;;;8.78;5.80;;;;;;;24.91;62.64;99180.06;1678529;85;25713;-66
2022/09/14 09:12:20;;;;;;;10.23;6.00;;;;;;;24.76;62.46;99179.66;1678668;85;27394;-66
2022/09/14 09:14:59;;;;;;;13.30;6.20;;;;;;;24.85;62.68;99175.67;1678574;85;25794;-65
2022/09/14 09:17:37;;;;;;;8.85;5.42;;;;;;;24.94;61.58;99174.47;1679637;84;25772;-65
2022/09/14 09:20:29;;;;;;;8.85;4.95;;;;;;;24.93;59.86;99171.52;1679263;85;25741;-65
2022/09/14 09:23:16;;;;;;;7.90;4.08;;;;;;;24.66;60.33;99168.27;1690409;84;25389;-65
2022/09/14 09:25:56;;;;;;;9.53;5.03;;;;;;;24.75;61.03;99173.34;1698747;83;28139;-64
2022/09/14 09:28:25;;;;;;;8.88;4.42;;;;;;;25.05;59.27;99175.56;1654368;86;25890;-63
2022/09/14 09:30:54;;;;;;;8.08;4.53;;;;;;;24.84;58.26;99170.57;1654239;85;25657;-64
2022/09/14 09:33:24;;;;;;;7.15;4.47;;;;;;;24.51;56.38;99166.41;1654734;85;26395;-63
2022/09/14 09:35:52;;;;;;;11.65;6.60;;;;;;;24.02;56.88;99161.59;1650936;86;25659;-63
2022/09/14 09:38:24;;;;;;;11.00;3.90;;;;;;;23.82;58.18;99156.09;1644198;86;27327;-63
2022/09/14 09:41:08;;;;;;;9.70;3.58;;;;;;;23.49;57.29;99165.60;1600601;89;25899;-63
2022/09/14 09:43:34;;;;;;;10.03;3.92;;;;;;;23.05;56.50;99162.06;1645520;86;25765;-64
2022/09/14 09:46:06;;;;;;;7.62;4.22;;;;;;;22.49;57.10;99169.47;1601646;89;25745;-64
2022/09/14 09:48:42;;;;;;;9.03;4.58;;;;;;;22.05;57.49;99168.50;1595889;86;25559;-63
2022/09/14 09:51:25;;;;;;;6.80;4.87;;;;;;;21.66;58.18;99169.20;1587199;90;27369;-63
2022/09/14 09:54:38;;;;;;;10.40;4.42;;;;;;;21.36;59.25;99170.68;1585832;90;26420;-64
2022/09/14 09:57:43;;;;;;;11.60;4.70;;;;;;;21.21;60.28;99163.77;1462176;96;25952;-64
2022/09/14 10:00:19;;;;;;;7.97;4.17;;;;;;;21.54;61.45;99168.34;1412298;100;25820;-64
2022/09/14 10:02:46;;;;;;;6.28;4.00;;;;;;;21.71;62.03;99169.33;1421603;99;25970;-64
2022/09/14 10:05:24;;;;;;;8.63;4.28;;;;;;;21.78;62.01;99172.02;1429696;99;27040;-64
2022/09/14 10:08:03;;;;;;;7.42;3.85;;;;;;;21.92;60.43;99174.57;1450613;98;25741;-64
2022/09/14 10:10:46;;;;;;;10.32;5.40;;;;;;;21.68;59.87;99170.17;1450767;98;25921;-64
2022/09/14 10:13:32;;;;;;;8.83;5.45;;;;;;;21.42;59.44;99171.80;1450204;98;25830;-64
2022/09/14 10:16:17;;;;;;;9.48;5.53;;;;;;;21.22;59.95;99169.47;1448284;98;25790;-64
2022/09/14 10:18:50;;;;;;;8.05;4.60;;;;;;;21.11;60.36;99168.18;1435596;99;27447;-63
2022/09/14 10:21:20;;;;;;;7.67;4.37;;;;;;;21.42;61.15;99166.91;1449235;98;26612;-63
2022/09/14 10:24:05;;;;;;;7.28;4.22;;;;;;;21.44;60.25;99170.79;1449326;98;25584;-63
2022/09/14 10:26:35;;;;;;;7.85;4.30;;;;;;;21.30;60.07;99171.53;1446704;98;25840;-64
2022/09/14 10:29:28;;;;;;;9.20;4.65;;;;;;;21.12;60.23;99179.97;1450592;98;25755;-64
2022/09/14 10:32:03;;;;;;;8.70;4.95;;;;;;;20.99;59.98;99180.45;1434318;97;27451;-64
2022/09/14 10:34:30;;;;;;;12.03;5.28;;;;;;;20.98;61.41;99176.77;1574457;89;25822;-64
2022/09/14 10:37:04;;;;;;;9.63;5.42;;;;;;;21.06;61.95;99176.87;1611518;87;25778;-64
2022/09/14 10:39:36;;;;;;;9.30;5.15;;;;;;;21.10;60.55;99176.26;1635722;87;25704;-65
2022/09/14 10:42:08;;;;;;;8.05;4.47;;;;;;;21.03;60.50;99177.10;1643806;86;25696;-64
2022/09/14 10:44:52;;;;;;;6.58;4.65;;;;;;;21.16;61.96;99173.23;1644268;86;27384;-62
2022/09/14 10:47:46;;;;;;;7.45;5.20;;;;;;;21.78;62.45;99181.65;1643671;86;27233;-62
2022/09/14 10:50:50;;;;;;;12.43;5.40;;;;;;;22.31;60.68;99177.41;1604044;85;26268;-62
2022/09/14 10:53:21;;;;;;;8.80;5.10;;;;;;;22.51;59.39;99187.16;1616819;88;25794;-65
2022/09/14 10:56:19;;;;;;;6.85;4.95;;;;;;;23.19;60.35;99174.26;1616385;88;25423;-65
2022/09/14 10:59:18;;;;;;;8.50;5.30;;;;;;;23.74;59.09;99170.63;1635924;87;27453;-62
2022/09/14 11:02:24;;;;;;;8.00;4.62;;;;;;;24.27;57.26;99169.32;1632636;85;25964;-63
2022/09/14 11:05:15;;;;;;;5.28;4.20;;;;;;;24.26;54.49;99165.60;1617441;86;25734;-63
2022/09/14 11:08:31;;;;;;;9.58;5.10;;;;;;;23.88;53.35;99174.33;1624753;85;26126;-62
2022/09/14 11:11:24;;;;;;;7.20;4.45;;;;;;;23.46;53.18;99178.28;1636868;85;25741;-62
2022/09/14 11:14:02;;;;;;;7.40;4.70;;;;;;;23.10;53.66;99169.30;1636394;86;27355;-63
2022/09/14 11:16:55;;;;;;;8.55;4.50;;;;;;;22.86;53.98;99174.60;1649959;85;26341;-61
2022/09/14 11:19:54;;;;;;;8.93;4.70;;;;;;;22.62;53.77;99171.06;1616330;86;25770;-61
2022/09/14 11:22:50;;;;;;;7.08;4.40;;;;;;;22.29;54.31;99169.40;1609996;86;26072;-63
2022/09/14 11:25:40;;;;;;;8.58;4.70;;;;;;;22.13;55.39;99166.61;1610500;86;25778;-62
2022/09/14 11:28:15;;;;;;;8.48;4.53;;;;;;;22.10;55.59;99173.55;1627055;86;27363;-61
2022/09/14 11:31:05;;;;;;;9.90;4.62;;;;;;;21.90;55.27;99170.09;1602312;86;25772;-61
2022/09/14 11:33:55;;;;;;;8.55;4.90;;;;;;;21.73;55.83;99175.22;1605879;88;25470;-62
2022/09/14 11:36:40;;;;;;;5.90;4.33;;;;;;;21.55;56.30;99172.06;1623559;88;25665;-62
2022/09/14 11:39:33;;;;;;;7.12;4.37;;;;;;;21.51;56.82;99171.95;1627088;88;25681;-62
2022/09/14 11:42:10;;;;;;;6.47;3.55;;;;;;;21.61;57.49;99171.03;1627376;88;27402;-62
2022/09/14 11:44:40;;;;;;;5.42;3.40;;;;;;;22.13;59.13;99158.34;1627131;88;25757;-62
2022/09/14 11:47:17;;;;;;;5.47;3.20;;;;;;;23.01;58.78;99153.86;1627328;88;25794;-63
2022/09/14 11:50:10;;;;;;;6.90;2.98;;;;;;;23.68;56.08;99156.55;1598365;84;27107;-63
2022/09/14 11:52:36;;;;;;;5.37;2.70;;;;;;;23.74;53.95;99154.06;1636681;87;25790;-63
2022/09/14 11:55:09;;;;;;;5.20;3.20;;;;;;;23.67;53.85;99156.98;1641938;86;27047;-63
2022/09/14 11:57:36;;;;;;;6.33;2.75;;;;;;;23.76;53.07;99146.13;1683400;84;25834;-63
2022/09/14 12:00:26;;;;;;;6.35;2.85;;;;;;;23.85;52.28;99142.81;1686274;83;25708;-63
2022/09/14 12:03:16;;;;;;;4.33;2.77;;;;;;;23.70;51.64;99149.23;1702742;83;26236;-65
2022/09/14 12:05:44;;;;;;;6.20;3.00;;;;;;;23.65;52.21;99148.33;1700183;83;25739;-63